Time;durP1;ratioP1;P1;durP2;ratioP2;P2;SDS_P1;SDS_P2;PMS_P1;PMS_P2;Temp;Humidity;BMP_temperature;BMP_pressure;BME280_temperature;BME280_humidity;BME280_pressure;Samples;Min_cycle;Max_cycle;Signal;HPM_P1;HPM_P2
2023/05/07 00:01:44;;;;;;;6.13;4.28;;;11.50;99.90;;;;;;5029647;28;20100;-86
2023/05/07 00:04:43;;;;;;;7.90;4.68;;;11.50;99.90;;;;;;5010418;28;20049;-84
2023/05/07 00:07:31;;;;;;;5.97;4.10;;;11.60;99.90;;;;;;5021361;28;20045;-87
2023/05/07 00:10:19;;;;;;;5.35;3.97;;;11.70;99.90;;;;;;5046993;28;20045;-84
2023/05/07 00:13:06;;;;;;;9.25;4.50;;;11.80;99.90;;;;;;5042250;28;20076;-84
2023/05/07 00:15:55;;;;;;;5.60;4.10;;;11.70;99.90;;;;;;5033176;28;20114;-84
2023/05/07 00:18:45;;;;;;;4.78;4.30;;;11.70;99.90;;;;;;5021113;28;20093;-84
2023/05/07 00:21:32;;;;;;;4.55;4.00;;;11.60;99.90;;;;;;5055561;28;20104;-85
2023/05/07 00:24:19;;;;;;;5.57;4.10;;;11.60;99.90;;;;;;5037784;28;20087;-86
2023/05/07 00:27:06;;;;;;;8.30;4.38;;;11.50;99.90;;;;;;5032216;28;20045;-87
2023/05/07 00:29:56;;;;;;;8.48;4.47;;;11.50;99.90;;;;;;5030885;28;20081;-85
2023/05/07 00:32:48;;;;;;;6.18;4.30;;;11.50;99.90;;;;;;5037284;28;20354;-85
2023/05/07 00:35:36;;;;;;;7.00;4.55;;;11.50;99.90;;;;;;5019042;28;20050;-85
2023/05/07 00:38:23;;;;;;;7.60;5.10;;;11.50;1.00;;;;;;5036022;28;20419;-85
2023/05/07 00:41:10;;;;;;;4.75;3.42;;;11.60;1.00;;;;;;5033965;28;20041;-84
2023/05/07 00:44:04;;;;;;;6.85;4.22;;;11.50;1.00;;;;;;5019774;28;20049;-85
2023/05/07 00:46:51;;;;;;;8.65;4.18;;;11.50;1.00;;;;;;5013859;28;20053;-85
2023/05/07 00:49:43;;;;;;;9.32;4.47;;;11.50;1.00;;;;;;5013728;28;20104;-85
2023/05/07 00:52:33;;;;;;;7.60;4.30;;;11.60;1.00;;;;;;5024417;28;20054;-85
2023/05/07 00:55:21;;;;;;;9.23;5.03;;;11.60;1.00;;;;;;5034955;28;20129;-85
2023/05/07 00:58:08;;;;;;;7.68;5.45;;;11.70;1.00;;;;;;5015472;28;20393;-87
2023/05/07 01:00:56;;;;;;;7.65;4.95;;;11.60;99.90;;;;;;5031713;28;20046;-85
2023/05/07 01:03:43;;;;;;;6.47;4.47;;;11.60;99.90;;;;;;5019130;28;20496;-87
2023/05/07 01:06:32;;;;;;;5.32;4.30;;;11.60;99.90;;;;;;5015575;28;20125;-86
2023/05/07 01:09:21;;;;;;;7.68;4.93;;;11.50;99.90;;;;;;5018089;28;20041;-86
2023/05/07 01:12:08;;;;;;;10.25;5.35;;;11.40;99.90;;;;;;5018158;28;20041;-86
2023/05/07 01:14:56;;;;;;;6.38;4.50;;;11.40;1.00;;;;;;5024840;28;20100;-84
2023/05/07 01:17:46;;;;;;;5.65;4.72;;;11.30;1.00;;;;;;5030954;28;20052;-86
2023/05/07 01:20:34;;;;;;;11.95;5.03;;;11.30;1.00;;;;;;5030807;28;20142;-85
2023/05/07 01:23:23;;;;;;;5.72;5.03;;;11.30;99.90;;;;;;5034178;28;20037;-85
2023/05/07 01:26:10;;;;;;;7.72;5.32;;;11.30;99.90;;;;;;5052543;28;20037;-84
2023/05/07 01:28:57;;;;;;;11.27;5.65;;;11.30;99.90;;;;;;5059284;28;20141;-82
2023/05/07 01:31:45;;;;;;;9.52;5.25;;;11.30;99.90;;;;;;5045872;28;20041;-84
2023/05/07 01:34:39;;;;;;;11.27;5.82;;;11.20;99.90;;;;;;5053301;28;20049;-86
2023/05/07 01:37:29;;;;;;;6.40;5.20;;;11.20;99.90;;;;;;5040105;28;20053;-85
2023/05/07 01:40:19;;;;;;;8.23;5.68;;;11.20;99.90;;;;;;5053489;28;20045;-87
2023/05/07 01:43:09;;;;;;;8.77;5.85;;;11.10;99.90;;;;;;5044353;28;20107;-84
2023/05/07 01:45:58;;;;;;;9.02;5.28;;;11.00;99.90;;;;;;5042749;28;20088;-87
2023/05/07 01:48:46;;;;;;;8.45;6.03;;;11.00;99.90;;;;;;5034963;28;20046;-87
2023/05/07 01:51:34;;;;;;;6.70;5.43;;;11.00;1.00;;;;;;5034843;28;20041;-86
2023/05/07 01:54:28;;;;;;;10.57;5.70;;;10.90;39.40;;;;;;5035398;28;20111;-85
2023/05/07 01:57:16;;;;;;;8.02;5.68;;;10.90;99.90;;;;;;5032228;28;20073;-84
2023/05/07 02:00:05;;;;;;;7.35;5.57;;;10.90;99.90;;;;;;5013095;28;20042;-85
2023/05/07 02:02:53;;;;;;;7.65;5.80;;;10.90;1.00;;;;;;5034797;28;20045;-86
2023/05/07 02:05:40;;;;;;;6.25;5.65;;;10.90;1.00;;;;;;5036144;28;20041;-85
2023/05/07 02:08:30;;;;;;;7.47;5.72;;;10.90;40.50;;;;;;5037337;28;20113;-85
2023/05/07 02:11:18;;;;;;;9.73;5.63;;;10.80;99.90;;;;;;5015643;28;20041;-84
2023/05/07 02:14:05;;;;;;;8.95;5.15;;;10.80;99.90;;;;;;5019032;28;20054;-87
2023/05/07 02:16:52;;;;;;;7.40;5.50;;;10.70;99.90;;;;;;5020860;28;20049;-85
2023/05/07 02:19:44;;;;;;;6.95;5.45;;;10.70;1.00;;;;;;5027518;28;20060;-85
2023/05/07 02:22:31;;;;;;;9.63;4.93;;;10.70;1.00;;;;;;5025844;28;20045;-85
2023/05/07 02:25:20;;;;;;;7.43;5.50;;;10.70;3.10;;;;;;5024026;28;20457;-87
2023/05/07 02:28:07;;;;;;;7.40;6.03;;;10.70;99.90;;;;;;5034937;28;20326;-86
2023/05/07 02:30:55;;;;;;;8.57;6.20;;;10.70;99.90;;;;;;5032525;28;20041;-86
2023/05/07 02:33:42;;;;;;;8.25;5.75;;;10.60;99.90;;;;;;5018328;28;20077;-84
2023/05/07 02:36:29;;;;;;;5.95;5.30;;;10.60;99.90;;;;;;5033847;28;20510;-84
2023/05/07 02:39:16;;;;;;;9.93;5.65;;;10.50;99.90;;;;;;5033017;28;20041;-84
2023/05/07 02:42:04;;;;;;;8.70;5.95;;;10.50;99.90;;;;;;5028331;28;20423;-85
2023/05/07 02:44:51;;;;;;;10.32;6.55;;;10.40;1.00;;;;;;5039785;28;20571;-86
2023/05/07 02:47:38;;;;;;;8.25;5.47;;;10.50;99.90;;;;;;5043251;28;20033;-85
2023/05/07 02:50:26;;;;;;;8.63;6.38;;;10.50;99.90;;;;;;5035563;28;20084;-84
2023/05/07 02:53:14;;;;;;;10.45;6.20;;;10.50;99.90;;;;;;5035867;28;20412;-85
2023/05/07 02:56:02;;;;;;;8.13;5.55;;;10.50;99.90;;;;;;5032072;28;20132;-84
2023/05/07 02:58:49;;;;;;;5.85;5.25;;;10.30;99.90;;;;;;5000600;28;20054;-85
2023/05/07 03:01:38;;;;;;;10.23;5.43;;;10.20;99.90;;;;;;5030095;28;20076;-85
2023/05/07 03:04:25;;;;;;;7.28;6.35;;;10.10;99.90;;;;;;5031480;28;20041;-85
2023/05/07 03:07:12;;;;;;;9.07;7.53;;;10.20;99.90;;;;;;5030372;28;20060;-87
2023/05/07 03:10:00;;;;;;;10.15;6.65;;;10.20;1.00;;;;;;5006489;28;20127;-86
2023/05/07 03:12:49;;;;;;;10.32;7.25;;;10.10;79.60;;;;;;4998202;28;20486;-85
2023/05/07 03:15:36;;;;;;;10.32;8.35;;;10.10;99.90;;;;;;5032849;28;20415;-83
2023/05/07 03:18:24;;;;;;;14.13;9.20;;;10.10;1.00;;;;;;5026593;28;20083;-86
2023/05/07 03:21:22;;;;;;;11.77;8.57;;;10.00;54.40;;;;;;5032757;28;20054;-83
2023/05/07 03:24:09;;;;;;;11.13;8.55;;;10.00;99.90;;;;;;5033452;28;20453;-87
2023/05/07 03:26:57;;;;;;;15.00;8.15;;;10.00;1.00;;;;;;5033733;28;20395;-87
2023/05/07 03:29:44;;;;;;;13.60;9.27;;;9.90;1.00;;;;;;5033096;28;20037;-87
2023/05/07 03:32:34;;;;;;;15.18;9.05;;;9.90;1.00;;;;;;5033059;28;20064;-84
2023/05/07 03:35:21;;;;;;;12.55;8.75;;;9.80;1.00;;;;;;5016937;28;20060;-86
2023/05/07 03:38:09;;;;;;;11.30;8.52;;;9.70;99.90;;;;;;5029278;28;20471;-85
2023/05/07 03:40:56;;;;;;;11.52;8.25;;;9.70;99.90;;;;;;5018296;28;20049;-84
2023/05/07 03:43:43;;;;;;;9.02;7.80;;;9.70;1.00;;;;;;5023033;28;20357;-85
2023/05/07 03:46:32;;;;;;;10.13;7.82;;;9.80;15.60;;;;;;5033384;28;20045;-86
2023/05/07 03:49:22;;;;;;;11.73;7.30;;;9.80;87.60;;;;;;5033166;28;20120;-87
2023/05/07 03:52:12;;;;;;;10.55;7.18;;;9.80;99.90;;;;;;5027137;28;20365;-86
2023/05/07 03:54:59;;;;;;;12.43;7.40;;;9.80;99.90;;;;;;5026228;28;20107;-85
2023/05/07 03:57:49;;;;;;;10.25;7.43;;;9.80;99.90;;;;;;5012409;28;20407;-86
2023/05/07 04:00:38;;;;;;;9.77;7.50;;;9.70;99.90;;;;;;5012609;28;20049;-84
2023/05/07 04:03:30;;;;;;;9.27;7.35;;;9.70;99.90;;;;;;5033064;28;20045;-88
2023/05/07 04:06:18;;;;;;;10.10;7.75;;;9.60;99.90;;;;;;5025413;28;20042;-87
2023/05/07 04:09:06;;;;;;;13.15;8.13;;;9.60;99.90;;;;;;5032352;28;20124;-87
2023/05/07 04:11:53;;;;;;;11.48;8.35;;;9.60;99.90;;;;;;5031464;28;20056;-85
2023/05/07 04:14:49;;;;;;;11.60;8.52;;;9.50;99.90;;;;;;5012298;28;20053;-86
2023/05/07 04:17:36;;;;;;;11.80;8.70;;;9.50;99.90;;;;;;5033100;28;20053;-88
2023/05/07 04:20:24;;;;;;;11.70;8.38;;;9.60;99.90;;;;;;5018285;28;20064;-88
2023/05/07 04:23:13;;;;;;;12.63;8.70;;;9.60;99.90;;;;;;5033872;28;20037;-86
2023/05/07 04:26:00;;;;;;;12.93;8.57;;;9.70;99.90;;;;;;5022617;28;20542;-85
2023/05/07 04:28:48;;;;;;;11.48;9.02;;;9.70;99.90;;;;;;5030958;28;20128;-82
2023/05/07 04:31:37;;;;;;;13.75;8.57;;;9.80;99.90;;;;;;5014198;28;20492;-84
2023/05/07 04:34:24;;;;;;;12.07;8.52;;;9.90;99.90;;;;;;5031226;28;20499;-85
2023/05/07 04:37:12;;;;;;;10.00;7.35;;;10.00;99.90;;;;;;5036386;28;20048;-85
2023/05/07 04:40:00;;;;;;;9.98;7.13;;;10.00;99.90;;;;;;5027172;28;20100;-85
2023/05/07 04:42:47;;;;;;;10.07;8.38;;;10.00;99.90;;;;;;5030895;28;20045;-83
2023/05/07 04:45:35;;;;;;;9.90;7.78;;;10.00;99.90;;;;;;5028344;28;20045;-84
2023/05/07 04:48:23;;;;;;;13.38;7.45;;;10.00;99.90;;;;;;5018383;28;20061;-84
2023/05/07 04:51:10;;;;;;;8.40;7.00;;;10.10;99.90;;;;;;5019030;28;20080;-85
2023/05/07 04:54:04;;;;;;;9.68;7.32;;;10.10;99.90;;;;;;5030289;28;20049;-86
2023/05/07 04:56:52;;;;;;;10.00;7.82;;;10.10;99.90;;;;;;5017440;28;20056;-87
2023/05/07 04:59:39;;;;;;;11.35;8.52;;;10.10;99.90;;;;;;5031485;28;20116;-85
2023/05/07 05:02:26;;;;;;;10.00;7.70;;;10.30;99.90;;;;;;5035878;28;20330;-84
2023/05/07 05:05:13;;;;;;;9.60;6.88;;;10.50;83.00;;;;;;5039575;28;20085;-85
2023/05/07 05:08:01;;;;;;;9.60;6.65;;;10.50;1.00;;;;;;5037506;28;20056;-86
2023/05/07 05:10:49;;;;;;;12.07;6.88;;;10.60;99.90;;;;;;5024811;28;20060;-85
2023/05/07 05:13:39;;;;;;;10.68;6.65;;;10.80;20.10;;;;;;5036061;28;20111;-85
2023/05/07 05:16:26;;;;;;;8.60;6.30;;;11.00;99.90;;;;;;5020981;28;20061;-84
2023/05/07 05:19:15;;;;;;;10.90;6.18;;;11.20;1.00;;;;;;5027823;28;20112;-85
2023/05/07 05:22:03;;;;;;;11.50;5.80;;;11.50;1.00;;;;;;5041043;28;20123;-85
2023/05/07 05:24:53;;;;;;;7.07;5.65;;;11.60;1.00;;;;;;5038995;28;20045;-85
2023/05/07 05:27:40;;;;;;;7.63;6.20;;;11.70;1.00;;;;;;5037840;28;20041;-83
2023/05/07 05:30:27;;;;;;;9.20;6.47;;;11.70;99.60;;;;;;5032780;28;20045;-86
2023/05/07 05:33:14;;;;;;;9.25;7.40;;;11.70;1.00;;;;;;5037029;28;20111;-85
2023/05/07 05:36:01;;;;;;;9.77;6.93;;;11.80;99.90;;;;;;5028781;28;20046;-86
2023/05/07 05:38:49;;;;;;;9.65;6.35;;;12.00;99.90;;;;;;5030237;28;20131;-84
2023/05/07 05:41:36;;;;;;;7.70;6.13;;;12.10;99.90;;;;;;5035958;28;20461;-85
2023/05/07 05:44:23;;;;;;;8.43;5.25;;;12.40;99.90;;;;;;5033799;28;20041;-84
2023/05/07 05:47:11;;;;;;;6.70;4.30;;;12.60;99.90;;;;;;5021797;28;20038;-86
2023/05/07 05:49:58;;;;;;;6.47;4.53;;;12.80;1.00;;;;;;5034402;28;20132;-86
2023/05/07 05:52:45;;;;;;;6.57;4.60;;;13.00;99.90;;;;;;5039767;28;20097;-86
2023/05/07 05:55:33;;;;;;;7.43;5.13;;;13.30;99.90;;;;;;5024468;28;20072;-84
2023/05/07 05:58:43;;;;;;;9.00;5.50;;;13.50;1.00;;;;;;5029808;28;20049;-86
2023/05/07 06:01:31;;;;;;;6.35;4.22;;;13.70;99.90;;;;;;5030969;28;20448;-86
2023/05/07 06:04:18;;;;;;;6.80;3.58;;;13.90;99.90;;;;;;5023362;28;20068;-83
2023/05/07 06:07:05;;;;;;;6.65;3.80;;;14.10;1.00;;;;;;5035816;28;20041;-84
2023/05/07 06:10:00;;;;;;;5.43;3.53;;;14.20;1.00;;;;;;5037461;28;20413;-87
2023/05/07 06:12:47;;;;;;;3.58;3.28;;;14.30;1.00;;;;;;5021854;28;20080;-85
2023/05/07 06:15:34;;;;;;;5.25;3.50;;;14.50;1.00;;;;;;5034937;28;20125;-84
2023/05/07 06:18:21;;;;;;;6.93;3.97;;;14.70;99.90;;;;;;5021110;28;20119;-87
2023/05/07 06:21:09;;;;;;;7.32;4.10;;;14.80;99.90;;;;;;5026005;28;20052;-84
2023/05/07 06:23:57;;;;;;;6.90;3.35;;;15.00;99.90;;;;;;5028200;28;20037;-85
2023/05/07 06:26:44;;;;;;;8.00;3.88;;;15.20;99.90;;;;;;5038494;28;20045;-85
2023/05/07 06:29:33;;;;;;;4.20;3.03;;;15.50;99.90;;;;;;5013048;28;20077;-84
2023/05/07 06:32:20;;;;;;;3.90;2.80;;;15.70;99.90;;;;;;5029047;28;20045;-85
2023/05/07 06:35:10;;;;;;;7.30;3.72;;;15.90;99.90;;;;;;5019039;28;20188;-85
2023/05/07 06:37:57;;;;;;;6.55;3.97;;;16.00;99.90;;;;;;5028883;28;20056;-87
2023/05/07 06:40:49;;;;;;;6.43;4.38;;;16.10;73.30;;;;;;5020317;28;20050;-83
2023/05/07 06:43:36;;;;;;;4.50;3.40;;;16.10;46.00;;;;;;5039310;28;20056;-89
2023/05/07 06:46:23;;;;;;;5.10;3.58;;;16.20;18.30;;;;;;5041413;28;20045;-86
2023/05/07 06:49:14;;;;;;;6.13;4.55;;;16.40;1.00;;;;;;5042607;28;20041;-88
2023/05/07 06:52:01;;;;;;;6.18;3.55;;;16.50;1.00;;;;;;5032297;28;20076;-88
2023/05/07 06:54:49;;;;;;;5.43;3.88;;;16.70;1.00;;;;;;5039324;28;20065;-86
2023/05/07 06:57:36;;;;;;;5.55;3.40;;;16.80;1.00;;;;;;5043903;28;20088;-85
2023/05/07 07:00:24;;;;;;;4.72;3.90;;;17.10;1.00;;;;;;5053548;28;20042;-88
2023/05/07 07:03:12;;;;;;;5.05;3.72;;;17.40;1.00;;;;;;5044672;28;20049;-89
2023/05/07 07:06:00;;;;;;;4.43;3.42;;;17.40;1.00;;;;;;5040201;28;20077;-86
2023/05/07 07:08:48;;;;;;;5.47;3.83;;;17.90;1.00;;;;;;5047616;28;20049;-87
2023/05/07 07:19:42;;;;;;;4.63;3.05;;;19.90;99.90;;;;;;6016671;22;20164;-86
2023/05/07 07:22:31;;;;;;;3.67;2.50;;;20.30;99.90;;;;;;5003139;28;20326;-86
2023/05/07 07:25:18;;;;;;;3.38;2.53;;;20.70;99.90;;;;;;5006637;28;20083;-85
2023/05/07 07:28:06;;;;;;;6.10;2.70;;;20.50;99.90;;;;;;5016290;28;20485;-86
2023/05/07 07:30:54;;;;;;;6.28;2.58;;;20.70;99.90;;;;;;5014644;28;20045;-87
2023/05/07 07:33:41;;;;;;;2.40;1.88;;;20.90;99.90;;;;;;5012452;28;20220;-86
2023/05/07 07:36:29;;;;;;;3.63;2.15;;;21.40;99.90;;;;;;5013320;28;20061;-86
2023/05/07 07:39:32;;;;;;;2.50;2.20;;;21.20;99.90;;;;;;5000645;28;20042;-85
2023/05/07 07:42:21;;;;;;;4.72;2.40;;;20.80;99.90;;;;;;5009340;28;20096;-86
2023/05/07 07:45:08;;;;;;;5.05;2.15;;;20.40;99.90;;;;;;5010833;28;20045;-87
2023/05/07 07:47:58;;;;;;;3.55;2.38;;;20.10;99.90;;;;;;4995806;28;20341;-86
2023/05/07 07:50:49;;;;;;;5.70;2.15;;;20.30;99.90;;;;;;5012809;28;20464;-89
2023/05/07 07:53:36;;;;;;;3.47;2.58;;;20.10;99.90;;;;;;4996088;28;20049;-90
2023/05/07 07:56:24;;;;;;;3.42;1.88;;;20.50;99.90;;;;;;4996952;28;20050;-90
2023/05/07 07:59:11;;;;;;;4.97;2.20;;;21.00;99.90;;;;;;4998743;28;20373;-90
2023/05/07 08:01:58;;;;;;;4.68;2.17;;;21.10;99.90;;;;;;5015918;28;20759;-87
2023/05/07 08:04:45;;;;;;;4.18;2.10;;;21.40;99.90;;;;;;5008039;28;20449;-88
2023/05/07 08:07:33;;;;;;;4.13;2.15;;;22.10;99.90;;;;;;5005436;28;20046;-87
2023/05/07 08:10:23;;;;;;;2.92;1.73;;;22.80;99.90;;;;;;5014210;28;20042;-87
2023/05/07 08:13:12;;;;;;;2.22;1.70;;;23.10;99.90;;;;;;5004342;28;20163;-88
2023/05/07 08:16:00;;;;;;;2.35;1.60;;;23.50;99.90;;;;;;5011370;28;20069;-84
2023/05/07 08:18:47;;;;;;;2.83;1.60;;;24.20;99.90;;;;;;5018078;28;20038;-87
2023/05/07 08:21:38;;;;;;;2.25;1.52;;;24.80;78.20;;;;;;5013850;28;20045;-89
2023/05/07 08:24:25;;;;;;;2.42;1.60;;;24.40;66.80;;;;;;5004252;28;20384;-87
2023/05/07 08:27:12;;;;;;;2.38;1.48;;;24.20;49.10;;;;;;5012208;28;20460;-88
2023/05/07 08:30:00;;;;;;;4.45;1.70;;;23.50;51.20;;;;;;5006409;28;20465;-87
2023/05/07 08:32:47;;;;;;;3.30;1.63;;;23.10;47.90;;;;;;5014539;28;20465;-88
2023/05/07 08:35:37;;;;;;;2.85;1.80;;;22.90;35.10;;;;;;5015898;28;20056;-89
2023/05/07 08:38:24;;;;;;;2.58;1.83;;;23.40;40.30;;;;;;5009087;28;20155;-87
2023/05/07 08:41:18;;;;;;;5.28;2.03;;;23.80;30.20;;;;;;5013864;28;20046;-90
2023/05/07 08:44:11;;;;;;;7.82;1.88;;;23.10;30.00;;;;;;5006887;28;20094;-90
2023/05/07 08:47:03;;;;;;;3.15;1.85;;;23.20;30.90;;;;;;5013558;28;20369;-89
2023/05/07 08:49:51;;;;;;;3.97;1.70;;;24.10;27.10;;;;;;5018244;28;20065;-89
2023/05/07 08:52:42;;;;;;;3.05;1.30;;;25.00;36.80;;;;;;5023828;28;20053;-89
2023/05/07 08:55:29;;;;;;;2.05;1.40;;;26.00;31.90;;;;;;5009449;28;20396;-90
2023/05/07 08:58:17;;;;;;;6.00;1.58;;;26.90;15.30;;;;;;5024670;28;20053;-89
2023/05/07 09:01:09;;;;;;;2.75;1.60;;;26.60;6.50;;;;;;5006987;28;20046;-89
2023/05/07 09:03:57;;;;;;;2.00;1.42;;;27.20;3.40;;;;;;5024049;28;20057;-85
2023/05/07 09:06:45;;;;;;;3.50;1.58;;;26.80;1.00;;;;;;5014217;28;20370;-87
2023/05/07 09:09:35;;;;;;;4.47;1.52;;;26.90;1.00;;;;;;5029699;28;20060;-89
2023/05/07 09:12:22;;;;;;;3.20;1.50;;;27.10;1.00;;;;;;5017969;28;20045;-88
2023/05/07 09:15:10;;;;;;;5.03;1.30;;;27.70;1.00;;;;;;5019541;28;20060;-84
2023/05/07 09:18:03;;;;;;;3.58;1.30;;;28.30;1.00;;;;;;5021293;28;20136;-90
2023/05/07 09:20:50;;;;;;;3.00;1.25;;;28.80;1.00;;;;;;5025802;28;20046;-86
2023/05/07 09:23:39;;;;;;;2.58;1.20;;;28.30;1.00;;;;;;5024535;28;20504;-89
2023/05/07 09:26:27;;;;;;;3.30;1.58;;;28.20;1.00;;;;;;5022455;28;20041;-87
2023/05/07 09:29:16;;;;;;;2.10;1.30;;;27.70;1.00;;;;;;5009936;28;20050;-88
2023/05/07 09:32:06;;;;;;;3.30;1.67;;;27.50;1.00;;;;;;5019181;28;20098;-87
2023/05/07 09:34:56;;;;;;;2.30;1.33;;;26.80;1.00;;;;;;5008363;28;20046;-87
2023/05/07 09:37:43;;;;;;;2.35;1.50;;;26.80;1.00;;;;;;5020867;28;20042;-87
2023/05/07 09:40:31;;;;;;;3.00;1.60;;;26.40;1.00;;;;;;4992300;28;20311;-87
2023/05/07 09:43:19;;;;;;;3.17;1.50;;;26.50;1.00;;;;;;5004992;28;20042;-89
2023/05/07 09:46:15;;;;;;;4.28;1.60;;;27.20;1.00;;;;;;5018942;28;20417;-90
2023/05/07 09:49:03;;;;;;;3.35;1.85;;;28.00;1.00;;;;;;5023519;28;20045;-89
2023/05/07 09:51:52;;;;;;;2.35;1.40;;;28.50;1.00;;;;;;5009195;28;20041;-88
2023/05/07 09:54:43;;;;;;;3.28;1.40;;;29.00;1.00;;;;;;5003951;28;20178;-85
2023/05/07 09:57:31;;;;;;;3.58;1.70;;;29.10;1.00;;;;;;5016110;28;20049;-89
2023/05/07 10:00:21;;;;;;;2.90;1.77;;;29.60;1.00;;;;;;5007084;28;20069;-86
2023/05/07 10:03:11;;;;;;;2.88;1.35;;;29.20;1.00;;;;;;5013355;28;20106;-86
2023/05/07 10:06:08;;;;;;;2.38;1.40;;;29.40;1.00;;;;;;5013377;28;20077;-87
2023/05/07 10:08:56;;;;;;;2.75;1.52;;;29.00;1.00;;;;;;5018394;28;20050;-86
2023/05/07 10:11:44;;;;;;;3.00;1.60;;;29.40;1.00;;;;;;5002827;28;20029;-80
2023/05/07 10:14:31;;;;;;;2.90;1.48;;;29.80;1.00;;;;;;5029792;28;20085;-83
2023/05/07 10:17:20;;;;;;;2.63;1.48;;;30.40;1.00;;;;;;5037296;28;20053;-88
2023/05/07 10:20:08;;;;;;;2.30;1.35;;;30.20;1.00;;;;;;5034795;28;20053;-88
2023/05/07 10:22:59;;;;;;;1.83;1.55;;;30.20;1.00;;;;;;5020364;28;20065;-89
2023/05/07 10:25:49;;;;;;;2.50;1.40;;;30.10;1.00;;;;;;5010482;28;20053;-86
2023/05/07 10:28:46;;;;;;;4.30;1.40;;;30.00;1.00;;;;;;5025571;28;20114;-90
2023/05/07 10:31:42;;;;;;;3.33;1.73;;;30.00;1.00;;;;;;5025741;28;20053;-88
2023/05/07 10:34:37;;;;;;;3.15;1.65;;;29.80;1.00;;;;;;5014199;28;20120;-89
2023/05/07 10:37:28;;;;;;;3.88;1.80;;;29.80;1.00;;;;;;5016201;28;20046;-88
2023/05/07 10:40:19;;;;;;;2.85;1.50;;;29.30;1.00;;;;;;5016104;28;20072;-90
2023/05/07 10:43:07;;;;;;;4.85;1.35;;;29.40;1.00;;;;;;5008454;28;20056;-87
2023/05/07 10:46:10;;;;;;;3.90;1.40;;;29.30;1.00;;;;;;5016456;28;20069;-87
2023/05/07 10:49:05;;;;;;;4.13;1.60;;;30.00;1.00;;;;;;5002958;28;20056;-89
2023/05/07 10:52:18;;;;;;;2.50;1.20;;;29.90;1.00;;;;;;5017994;28;20041;-88
2023/05/07 10:55:14;;;;;;;;;;;30.10;1.00;;;;;;5018650;28;20034;-86
2023/05/07 10:58:20;;;;;;;3.38;1.50;;;30.70;1.00;;;;;;5018009;28;19980;-86
2023/05/07 11:01:52;;;;;;;3.00;1.40;;;29.80;1.00;;;;;;5017486;28;20365;-88
2023/05/07 11:05:21;;;;;;;6.20;2.25;;;29.10;1.00;;;;;;5004007;28;20050;-89
2023/05/07 11:08:15;;;;;;;4.05;1.30;;;29.30;1.00;;;;;;4995208;28;20038;-89
2023/05/07 11:11:03;;;;;;;1.40;1.13;;;29.20;1.00;;;;;;5006838;28;20160;-90
2023/05/07 11:15:01;;;;;;;1.75;1.20;;;29.00;1.00;;;;;;5016769;28;20053;-86
2023/05/07 11:17:55;;;;;;;2.05;1.35;;;28.90;1.00;;;;;;4984521;28;20054;-89
2023/05/07 11:21:07;;;;;;;3.50;1.30;;;29.10;1.00;;;;;;5018717;28;20318;-88
2023/05/07 11:23:55;;;;;;;3.00;1.30;;;29.00;1.00;;;;;;5010911;28;20045;-86
2023/05/07 11:26:51;;;;;;;3.25;1.70;;;27.80;1.00;;;;;;5017651;28;20108;-86
2023/05/07 11:29:47;;;;;;;2.75;1.50;;;26.80;1.00;;;;;;5020096;28;20034;-90
2023/05/07 11:32:40;;;;;;;3.28;1.33;;;26.10;1.00;;;;;;5021901;28;20125;-87
2023/05/07 11:36:07;;;;;;;3.10;2.03;;;25.70;1.00;;;;;;5013555;28;20057;-86
2023/05/07 11:38:55;;;;;;;3.65;1.70;;;24.80;1.00;;;;;;4923796;29;20047;-88
2023/05/07 11:42:12;;;;;;;2.63;1.70;;;24.60;1.00;;;;;;4938042;28;20047;-86
2023/05/07 11:45:08;;;;;;;2.40;1.60;;;23.90;1.00;;;;;;4936012;29;20075;-85
2023/05/07 11:47:57;;;;;;;4.07;1.40;;;23.60;1.00;;;;;;4946799;29;20849;-89
2023/05/07 11:51:08;;;;;;;2.40;1.38;;;23.10;1.00;;;;;;4936887;29;20094;-86
2023/05/07 11:54:34;;;;;;;3.53;1.77;;;22.90;1.00;;;;;;4937830;29;20052;-88
2023/05/07 11:57:30;;;;;;;3.05;1.80;;;22.50;1.00;;;;;;5016150;28;20061;-85
2023/05/07 12:00:17;;;;;;;3.03;1.60;;;22.20;1.00;;;;;;5012198;28;20033;-88
2023/05/07 12:03:09;;;;;;;2.30;1.50;;;22.00;1.00;;;;;;5015818;28;20047;-88
2023/05/07 12:05:57;;;;;;;5.90;1.90;;;21.80;1.00;;;;;;5024564;28;20045;-87
2023/05/07 12:08:45;;;;;;;3.65;2.10;;;21.60;1.00;;;;;;5027167;28;20320;-87
2023/05/07 12:11:35;;;;;;;5.93;1.95;;;21.00;2.20;;;;;;5020684;28;20057;-87
2023/05/07 12:14:30;;;;;;;11.13;2.65;;;20.40;30.60;;;;;;5015265;28;20046;-88
2023/05/07 12:17:17;;;;;;;21.10;5.43;;;19.70;86.50;;;;;;5003776;28;20046;-86
2023/05/07 12:20:09;;;;;;;13.48;4.43;;;19.00;99.90;;;;;;5005058;28;20064;-86
2023/05/07 12:22:57;;;;;;;13.23;4.07;;;18.00;99.90;;;;;;5000158;28;20072;-86
2023/05/07 12:25:47;;;;;;;12.35;3.75;;;16.90;1.00;;;;;;5009030;28;20046;-87
2023/05/07 12:28:38;;;;;;;48.92;8.18;;;16.30;22.80;;;;;;5018813;28;20042;-88
2023/05/07 12:31:30;;;;;;;26.90;5.90;;;15.50;99.90;;;;;;5022224;28;20436;-89
2023/05/07 12:34:18;;;;;;;10.10;4.72;;;14.80;1.00;;;;;;5009525;28;20543;-89
2023/05/07 12:37:05;;;;;;;10.35;4.05;;;14.30;99.90;;;;;;4997547;28;20057;-85
2023/05/07 12:40:08;;;;;;;15.55;4.05;;;14.00;99.90;;;;;;5014675;28;20053;-88
2023/05/07 12:42:56;;;;;;;18.30;4.80;;;13.90;1.00;;;;;;5004277;28;20045;-86
2023/05/07 12:45:48;;;;;;;15.45;4.70;;;13.80;1.00;;;;;;5021334;28;20042;-87
2023/05/07 12:48:37;;;;;;;14.10;5.95;;;13.80;1.00;;;;;;5006410;28;20120;-91
2023/05/07 12:51:24;;;;;;;15.40;7.13;;;13.70;79.70;;;;;;5017476;28;20065;-86
2023/05/07 12:54:12;;;;;;;12.00;7.60;;;13.70;99.90;;;;;;5020063;28;20101;-87
2023/05/07 12:57:07;;;;;;;34.17;8.70;;;13.70;1.00;;;;;;5019644;28;20038;-87
2023/05/07 12:59:58;;;;;;;39.80;8.80;;;13.80;1.00;;;;;;5016288;28;20050;-89
2023/05/07 13:02:50;;;;;;;34.83;7.32;;;13.60;1.00;;;;;;5001272;28;20481;-89
2023/05/07 13:05:38;;;;;;;11.98;4.80;;;12.50;1.00;;;;;;5008696;28;20057;-89
2023/05/07 13:08:40;;;;;;;11.63;4.13;;;12.50;1.00;;;;;;5002660;28;20060;-86
2023/05/07 13:11:50;;;;;;;6.07;3.25;;;12.90;1.00;;;;;;5007799;28;20046;-87
2023/05/07 13:14:37;;;;;;;4.90;3.50;;;12.90;99.90;;;;;;5017437;28;20056;-87
2023/05/07 13:17:34;;;;;;;5.32;4.22;;;12.80;99.90;;;;;;5017686;28;20072;-88
2023/05/07 13:20:22;;;;;;;8.70;4.22;;;12.80;99.90;;;;;;5006071;28;20073;-89
2023/05/07 13:23:10;;;;;;;5.65;4.53;;;12.70;1.00;;;;;;5019360;28;20046;-90
2023/05/07 13:25:57;;;;;;;9.57;6.35;;;12.80;99.90;;;;;;5008470;28;20449;-88
2023/05/07 13:28:49;;;;;;;10.65;5.60;;;13.10;99.90;;;;;;5008790;28;20046;-88
2023/05/07 13:31:42;;;;;;;13.00;5.77;;;13.30;99.90;;;;;;5018608;28;20042;-89
2023/05/07 13:34:32;;;;;;;8.60;6.30;;;13.40;99.90;;;;;;5015732;28;20042;-89
2023/05/07 13:37:22;;;;;;;8.80;5.78;;;13.40;99.90;;;;;;4999765;28;20074;-87
2023/05/07 13:40:12;;;;;;;12.02;5.45;;;13.40;99.90;;;;;;5005351;28;20053;-90
2023/05/07 13:43:02;;;;;;;11.57;5.50;;;13.30;99.90;;;;;;5015352;28;20078;-91
2023/05/07 13:45:49;;;;;;;7.88;5.55;;;13.40;99.90;;;;;;5014465;28;20046;-88
2023/05/07 13:48:37;;;;;;;7.35;5.05;;;13.30;99.90;;;;;;5024902;28;20057;-89
2023/05/07 13:51:25;;;;;;;7.97;4.70;;;13.30;99.90;;;;;;5015808;28;20061;-87
2023/05/07 13:54:13;;;;;;;6.80;4.35;;;13.30;99.90;;;;;;5013906;28;20050;-88
2023/05/07 13:57:03;;;;;;;11.48;5.15;;;13.30;99.90;;;;;;5015979;28;20078;-87
2023/05/07 13:59:51;;;;;;;11.88;5.65;;;13.30;99.90;;;;;;5003014;28;20060;-88
2023/05/07 14:02:38;;;;;;;8.77;5.68;;;13.30;99.90;;;;;;4996748;28;20045;-88
2023/05/07 14:05:27;;;;;;;10.10;5.63;;;13.30;99.90;;;;;;5018121;28;20057;-89
2023/05/07 14:08:17;;;;;;;13.43;6.15;;;13.30;99.90;;;;;;5012277;28;20077;-89
2023/05/07 14:11:04;;;;;;;14.38;7.57;;;13.30;99.90;;;;;;5015504;28;20108;-89
2023/05/07 14:13:52;;;;;;;18.25;7.50;;;13.40;99.90;;;;;;5015901;28;20057;-89
2023/05/07 14:16:43;;;;;;;11.27;7.43;;;13.40;99.90;;;;;;5006954;28;20050;-90
2023/05/07 14:19:30;;;;;;;9.57;5.78;;;13.40;99.90;;;;;;4997562;28;20615;-90
2023/05/07 14:22:18;;;;;;;8.80;5.05;;;13.40;99.90;;;;;;4991908;28;20053;-89
2023/05/07 14:25:06;;;;;;;10.68;5.63;;;13.30;99.90;;;;;;5006780;28;20484;-88
2023/05/07 14:27:55;;;;;;;11.20;6.38;;;13.30;99.90;;;;;;4996785;28;20046;-85
2023/05/07 14:30:43;;;;;;;14.82;7.15;;;13.30;99.90;;;;;;5013846;28;20063;-83
2023/05/07 14:33:31;;;;;;;14.13;8.35;;;13.50;99.90;;;;;;5004947;28;20045;-86
2023/05/07 14:36:22;;;;;;;13.80;9.20;;;13.50;99.90;;;;;;5010176;28;20060;-89
2023/05/07 14:39:10;;;;;;;14.03;9.53;;;13.50;99.90;;;;;;5006927;28;20058;-86
2023/05/07 14:41:59;;;;;;;19.13;9.85;;;13.50;99.90;;;;;;5003879;28;20046;-88
2023/05/07 14:44:48;;;;;;;15.18;10.55;;;13.50;99.90;;;;;;4986968;28;20104;-88
2023/05/07 14:47:35;;;;;;;12.77;9.55;;;13.60;99.90;;;;;;4997925;28;20046;-87
2023/05/07 14:50:23;;;;;;;19.58;9.98;;;13.60;99.90;;;;;;5007854;28;20061;-86
2023/05/07 14:53:10;;;;;;;14.45;10.20;;;13.70;99.90;;;;;;4996234;28;20084;-87
2023/05/07 14:55:58;;;;;;;16.23;10.50;;;13.80;99.90;;;;;;5007174;28;20056;-87